Time;durP1;ratioP1;P1;durP2;ratioP2;P2;SDS_P1;SDS_P2;PMS_P1;PMS_P2;Temp;Humidity;BMP_temperature;BMP_pressure;BME280_temperature;BME280_humidity;BME280_pressure;Samples;Min_cycle;Max_cycle;Signal;HPM_P1;HPM_P2
2024/01/26 00:01:38;;;;;;;7.00;1.88;;;;;;;;;;4955823;28;20035;-69
2024/01/26 00:04:04;;;;;;;5.97;1.75;;;;;;;;;;4955681;28;20547;-67
2024/01/26 00:06:29;;;;;;;5.53;2.20;;;;;;;;;;4954916;29;20062;-67
2024/01/26 00:08:55;;;;;;;3.25;1.73;;;;;;;;;;4955349;28;20035;-69
2024/01/26 00:11:20;;;;;;;4.65;2.45;;;;;;;;;;4955914;29;20023;-66
2024/01/26 00:13:46;;;;;;;5.45;1.88;;;;;;;;;;4955695;29;20472;-68
2024/01/26 00:16:12;;;;;;;5.53;2.08;;;;;;;;;;4955220;29;20499;-68
2024/01/26 00:18:40;;;;;;;2.65;1.75;;;;;;;;;;4954386;29;20087;-68
2024/01/26 00:21:06;;;;;;;4.32;2.00;;;;;;;;;;4955099;29;20115;-68
2024/01/26 00:23:32;;;;;;;4.30;1.63;;;;;;;;;;4956188;28;20031;-69
2024/01/26 00:25:58;;;;;;;3.90;1.65;;;;;;;;;;4955508;29;20019;-69
2024/01/26 00:28:24;;;;;;;7.13;1.80;;;;;;;;;;4955310;29;20090;-69
2024/01/26 00:30:49;;;;;;;4.53;1.52;;;;;;;;;;4955616;29;20515;-68
2024/01/26 00:33:15;;;;;;;2.72;1.40;;;;;;;;;;4955174;29;20512;-68
2024/01/26 00:35:40;;;;;;;5.05;1.80;;;;;;;;;;4955747;29;20432;-67
2024/01/26 00:38:06;;;;;;;3.28;1.95;;;;;;;;;;4955063;28;20159;-68
2024/01/26 00:40:31;;;;;;;3.25;1.70;;;;;;;;;;4955480;29;20059;-67
2024/01/26 00:42:57;;;;;;;7.10;2.03;;;;;;;;;;4955195;29;20081;-67
2024/01/26 00:45:23;;;;;;;4.60;1.58;;;;;;;;;;4955254;29;20098;-68
2024/01/26 00:47:48;;;;;;;4.20;1.75;;;;;;;;;;4955233;29;20024;-68
2024/01/26 00:50:14;;;;;;;7.55;2.13;;;;;;;;;;4955302;29;20441;-67
2024/01/26 00:52:40;;;;;;;2.78;1.35;;;;;;;;;;4938268;29;20051;-67
2024/01/26 00:55:05;;;;;;;5.80;1.73;;;;;;;;;;4954978;28;20388;-67
2024/01/26 00:57:31;;;;;;;6.47;1.35;;;;;;;;;;4955006;28;20071;-67
2024/01/26 00:59:59;;;;;;;3.90;1.67;;;;;;;;;;4954811;29;20090;-69
2024/01/26 01:02:25;;;;;;;3.78;1.42;;;;;;;;;;4955201;29;20054;-67
2024/01/26 01:04:50;;;;;;;3.40;1.73;;;;;;;;;;4954590;29;20079;-68
2024/01/26 01:07:16;;;;;;;3.72;1.75;;;;;;;;;;4954941;29;20031;-68
2024/01/26 01:09:41;;;;;;;9.27;2.05;;;;;;;;;;4954816;29;20030;-68
2024/01/26 01:12:07;;;;;;;4.32;1.40;;;;;;;;;;4954832;28;20032;-67
2024/01/26 01:14:33;;;;;;;2.53;1.83;;;;;;;;;;4954615;29;20031;-67
2024/01/26 01:17:01;;;;;;;3.40;1.40;;;;;;;;;;4954693;28;20156;-68
2024/01/26 01:19:27;;;;;;;4.68;1.40;;;;;;;;;;4954825;29;20035;-68
2024/01/26 01:21:53;;;;;;;3.45;1.50;;;;;;;;;;4954522;28;20031;-68
2024/01/26 01:24:18;;;;;;;5.18;1.60;;;;;;;;;;4954402;29;20038;-68
2024/01/26 01:26:44;;;;;;;3.47;1.40;;;;;;;;;;4954428;28;20027;-67
2024/01/26 01:29:10;;;;;;;2.92;1.23;;;;;;;;;;4954516;28;20392;-69
2024/01/26 01:31:35;;;;;;;4.38;1.48;;;;;;;;;;4954420;29;20104;-68
2024/01/26 01:34:01;;;;;;;2.22;1.58;;;;;;;;;;4954778;29;20040;-67
2024/01/26 01:36:26;;;;;;;3.20;1.48;;;;;;;;;;4954805;29;20023;-67
2024/01/26 01:38:52;;;;;;;2.95;1.58;;;;;;;;;;4954594;29;20392;-67
2024/01/26 01:41:17;;;;;;;5.47;1.65;;;;;;;;;;4954411;28;20531;-67
2024/01/26 01:43:43;;;;;;;4.28;1.83;;;;;;;;;;4954305;29;20031;-67
2024/01/26 01:46:09;;;;;;;3.38;1.30;;;;;;;;;;4954397;29;20043;-68
2024/01/26 01:48:35;;;;;;;4.13;1.50;;;;;;;;;;4954483;29;20027;-67
2024/01/26 01:51:01;;;;;;;3.45;1.35;;;;;;;;;;4954454;28;20027;-68
2024/01/26 01:53:28;;;;;;;2.63;1.58;;;;;;;;;;4954159;29;20103;-67
2024/01/26 01:55:53;;;;;;;5.57;1.67;;;;;;;;;;4954438;29;20134;-70
2024/01/26 01:58:21;;;;;;;3.35;1.50;;;;;;;;;;4954101;29;20135;-68
2024/01/26 02:00:47;;;;;;;2.30;1.60;;;;;;;;;;4954207;29;20384;-67
2024/01/26 02:03:12;;;;;;;4.45;1.35;;;;;;;;;;4954620;29;20045;-68
2024/01/26 02:05:38;;;;;;;1.67;1.42;;;;;;;;;;4954436;28;20094;-67
2024/01/26 02:08:04;;;;;;;1.90;1.30;;;;;;;;;;4954196;29;20027;-67
2024/01/26 02:10:29;;;;;;;3.33;1.33;;;;;;;;;;4953999;29;20039;-70
2024/01/26 02:12:55;;;;;;;1.65;1.20;;;;;;;;;;4937145;29;20027;-67
2024/01/26 02:15:20;;;;;;;3.08;1.63;;;;;;;;;;4954013;29;20058;-68
2024/01/26 02:17:46;;;;;;;3.95;1.50;;;;;;;;;;4954350;28;20019;-69
2024/01/26 02:20:12;;;;;;;2.92;1.70;;;;;;;;;;4954218;29;20162;-70
2024/01/26 02:22:38;;;;;;;2.58;1.40;;;;;;;;;;4954462;28;20240;-67
2024/01/26 02:25:04;;;;;;;3.10;1.50;;;;;;;;;;4957878;28;20031;-67
2024/01/26 02:27:30;;;;;;;2.80;1.45;;;;;;;;;;4957659;28;20023;-67
2024/01/26 02:29:55;;;;;;;3.08;1.30;;;;;;;;;;4957972;29;20058;-67
2024/01/26 02:32:21;;;;;;;3.03;1.30;;;;;;;;;;4957440;28;20377;-67
2024/01/26 02:34:47;;;;;;;2.42;1.30;;;;;;;;;;4957656;29;20395;-66
2024/01/26 02:37:12;;;;;;;2.38;1.23;;;;;;;;;;4957270;28;20024;-68
2024/01/26 02:39:38;;;;;;;2.47;1.58;;;;;;;;;;4957501;28;20111;-67
2024/01/26 02:42:05;;;;;;;2.58;1.30;;;;;;;;;;4957588;29;20027;-70
2024/01/26 02:44:31;;;;;;;6.93;1.58;;;;;;;;;;4957294;29;20031;-69
2024/01/26 02:46:56;;;;;;;4.13;1.63;;;;;;;;;;4957471;28;20035;-67
2024/01/26 02:49:22;;;;;;;2.72;1.40;;;;;;;;;;4957404;29;20039;-71
2024/01/26 02:51:47;;;;;;;2.88;1.45;;;;;;;;;;4957289;29;20027;-67
2024/01/26 02:54:13;;;;;;;3.97;1.13;;;;;;;;;;4957539;29;20024;-66
2024/01/26 02:56:38;;;;;;;2.75;1.33;;;;;;;;;;4957269;29;20077;-66
2024/01/26 02:59:04;;;;;;;2.35;1.38;;;;;;;;;;4957013;29;20086;-67
2024/01/26 03:01:29;;;;;;;3.75;1.80;;;;;;;;;;4957470;29;20027;-67
2024/01/26 03:03:55;;;;;;;2.80;1.23;;;;;;;;;;4957297;28;20027;-67
2024/01/26 03:06:21;;;;;;;2.60;1.10;;;;;;;;;;4957164;29;20059;-68
2024/01/26 03:08:46;;;;;;;2.60;1.30;;;;;;;;;;4956970;29;20236;-68
2024/01/26 03:11:12;;;;;;;2.67;1.25;;;;;;;;;;4956946;29;20522;-67
2024/01/26 03:13:39;;;;;;;2.38;1.35;;;;;;;;;;4956657;29;20110;-70
2024/01/26 03:16:05;;;;;;;3.75;1.30;;;;;;;;;;4956580;29;20035;-70
2024/01/26 03:18:31;;;;;;;2.65;1.50;;;;;;;;;;4956671;29;20038;-66
2024/01/26 03:20:57;;;;;;;1.90;1.30;;;;;;;;;;4957054;29;20031;-70
2024/01/26 03:23:23;;;;;;;1.92;1.05;;;;;;;;;;4956924;29;20035;-66
2024/01/26 03:25:48;;;;;;;2.25;1.30;;;;;;;;;;4956608;29;20393;-70
2024/01/26 03:28:14;;;;;;;5.68;1.90;;;;;;;;;;4956964;29;20039;-68
2024/01/26 03:30:40;;;;;;;3.33;1.48;;;;;;;;;;4956492;29;20031;-71
2024/01/26 03:33:07;;;;;;;2.17;1.20;;;;;;;;;;4956893;28;20058;-66
2024/01/26 03:35:32;;;;;;;3.08;1.40;;;;;;;;;;4956230;28;20371;-68
2024/01/26 03:37:58;;;;;;;2.42;1.38;;;;;;;;;;4956447;29;20111;-67
2024/01/26 03:40:24;;;;;;;3.92;1.50;;;;;;;;;;4956359;28;20050;-71
2024/01/26 03:42:53;;;;;;;1.08;0.98;;;;;;;;;;4956523;29;20027;-67
2024/01/26 03:45:19;;;;;;;2.30;1.60;;;;;;;;;;4956219;29;20027;-67
2024/01/26 03:47:44;;;;;;;2.95;1.60;;;;;;;;;;4956362;29;20110;-67
2024/01/26 03:50:10;;;;;;;1.73;1.10;;;;;;;;;;4956096;29;20039;-72
2024/01/26 03:52:36;;;;;;;3.40;1.50;;;;;;;;;;4956193;28;20027;-67
2024/01/26 03:55:02;;;;;;;2.08;1.30;;;;;;;;;;4956459;29;20042;-68
2024/01/26 03:57:27;;;;;;;2.00;1.25;;;;;;;;;;4955886;28;20023;-71
2024/01/26 03:59:53;;;;;;;2.05;1.35;;;;;;;;;;4955953;29;20034;-66
2024/01/26 04:02:19;;;;;;;3.97;1.75;;;;;;;;;;4956338;28;20035;-70
2024/01/26 04:04:45;;;;;;;1.42;1.10;;;;;;;;;;4955619;29;20520;-66
2024/01/26 04:07:11;;;;;;;3.05;1.50;;;;;;;;;;4938651;29;20114;-67
2024/01/26 04:09:37;;;;;;;1.90;1.00;;;;;;;;;;4955806;29;20035;-72
2024/01/26 04:12:03;;;;;;;4.05;1.58;;;;;;;;;;4955702;28;20023;-66
2024/01/26 04:14:29;;;;;;;2.40;1.20;;;;;;;;;;4956000;28;20039;-70
2024/01/26 04:16:54;;;;;;;2.70;1.25;;;;;;;;;;4955738;28;20081;-66
2024/01/26 04:19:20;;;;;;;2.47;1.30;;;;;;;;;;4955614;29;20051;-67
2024/01/26 04:21:46;;;;;;;1.52;1.20;;;;;;;;;;4955653;29;20027;-67
2024/01/26 04:24:11;;;;;;;3.67;1.38;;;;;;;;;;4955439;28;20019;-66
2024/01/26 04:26:37;;;;;;;2.13;1.25;;;;;;;;;;4955567;29;20419;-67
2024/01/26 04:29:02;;;;;;;1.77;1.30;;;;;;;;;;4955444;29;20031;-69
2024/01/26 04:31:28;;;;;;;3.20;1.17;;;;;;;;;;4955416;29;20031;-67
2024/01/26 04:33:54;;;;;;;2.47;1.30;;;;;;;;;;4955198;28;20031;-66
2024/01/26 04:36:20;;;;;;;1.92;1.10;;;;;;;;;;4955173;29;20599;-69
2024/01/26 04:38:46;;;;;;;2.53;1.40;;;;;;;;;;4955480;28;20102;-68
2024/01/26 04:41:11;;;;;;;2.55;1.40;;;;;;;;;;4955869;29;20031;-66
2024/01/26 04:43:37;;;;;;;1.48;1.30;;;;;;;;;;4955134;29;20444;-66
2024/01/26 04:46:03;;;;;;;1.65;1.27;;;;;;;;;;4954862;28;20063;-66
2024/01/26 04:48:29;;;;;;;1.95;1.23;;;;;;;;;;4954668;29;20038;-65
2024/01/26 04:50:54;;;;;;;2.90;1.27;;;;;;;;;;4955018;29;20078;-67
2024/01/26 04:53:20;;;;;;;1.98;1.27;;;;;;;;;;4955107;29;20023;-69
2024/01/26 04:55:46;;;;;;;2.92;1.50;;;;;;;;;;4955153;29;20064;-66
2024/01/26 04:58:11;;;;;;;1.98;1.20;;;;;;;;;;4937686;29;20559;-65
2024/01/26 05:00:37;;;;;;;2.88;1.38;;;;;;;;;;4955021;29;20110;-67
2024/01/26 05:03:03;;;;;;;3.63;1.30;;;;;;;;;;4954826;29;20381;-66
2024/01/26 05:05:28;;;;;;;1.33;1.17;;;;;;;;;;4954460;28;20481;-68
2024/01/26 05:07:54;;;;;;;1.30;1.20;;;;;;;;;;4954927;29;20469;-66
2024/01/26 05:10:19;;;;;;;1.50;1.13;;;;;;;;;;4954706;29;20484;-69
2024/01/26 05:12:45;;;;;;;1.38;1.10;;;;;;;;;;4955138;29;20023;-70
2024/01/26 05:15:11;;;;;;;2.08;1.17;;;;;;;;;;4954876;28;20023;-69
2024/01/26 05:17:37;;;;;;;3.22;1.55;;;;;;;;;;4937432;29;20019;-67
2024/01/26 05:20:04;;;;;;;1.00;1.00;;;;;;;;;;4954726;29;20027;-66
2024/01/26 05:22:30;;;;;;;1.25;1.15;;;;;;;;;;4954931;28;20034;-69
2024/01/26 05:24:56;;;;;;;3.28;1.20;;;;;;;;;;4955095;29;20393;-69
2024/01/26 05:27:21;;;;;;;2.00;1.02;;;;;;;;;;4954514;29;20114;-66
2024/01/26 05:29:47;;;;;;;2.17;1.40;;;;;;;;;;4954698;28;20488;-67
2024/01/26 05:32:14;;;;;;;2.22;1.20;;;;;;;;;;4955011;28;20024;-66
2024/01/26 05:34:40;;;;;;;3.05;1.35;;;;;;;;;;4954806;29;20031;-67
2024/01/26 05:37:05;;;;;;;2.05;1.38;;;;;;;;;;4954478;29;20432;-66
2024/01/26 05:39:32;;;;;;;1.35;1.10;;;;;;;;;;4954520;29;20031;-68
2024/01/26 05:41:58;;;;;;;2.80;1.35;;;;;;;;;;4954625;29;20078;-67
2024/01/26 05:44:23;;;;;;;1.48;1.13;;;;;;;;;;4954249;28;20381;-67
2024/01/26 05:46:49;;;;;;;1.48;1.25;;;;;;;;;;4954550;29;20035;-68
2024/01/26 05:49:14;;;;;;;2.03;1.30;;;;;;;;;;4954468;28;20472;-66
2024/01/26 05:51:40;;;;;;;3.08;1.27;;;;;;;;;;4954224;29;20027;-67
2024/01/26 05:54:05;;;;;;;2.45;1.40;;;;;;;;;;4954488;28;20030;-66
2024/01/26 05:56:31;;;;;;;1.23;1.05;;;;;;;;;;4954401;29;20443;-67
2024/01/26 05:58:56;;;;;;;2.30;1.23;;;;;;;;;;4956707;28;20058;-66
2024/01/26 06:01:22;;;;;;;3.03;1.33;;;;;;;;;;4958000;29;20062;-66
2024/01/26 06:03:47;;;;;;;2.35;1.10;;;;;;;;;;4957728;29;20094;-66
2024/01/26 06:06:14;;;;;;;2.15;1.20;;;;;;;;;;4958173;29;20031;-66
2024/01/26 06:08:43;;;;;;;1.63;1.20;;;;;;;;;;4958339;29;20424;-66
2024/01/26 06:11:09;;;;;;;2.15;1.23;;;;;;;;;;4958166;29;20065;-67
2024/01/26 06:13:35;;;;;;;1.77;1.02;;;;;;;;;;4957736;29;20388;-67
2024/01/26 06:16:01;;;;;;;2.28;1.35;;;;;;;;;;4958059;28;20019;-68
2024/01/26 06:18:26;;;;;;;2.08;1.60;;;;;;;;;;4957761;28;20496;-68
2024/01/26 06:20:52;;;;;;;2.13;1.20;;;;;;;;;;4958012;29;20039;-67
2024/01/26 06:23:17;;;;;;;1.30;1.20;;;;;;;;;;4957668;29;20019;-67
2024/01/26 06:25:43;;;;;;;2.80;1.27;;;;;;;;;;4957482;28;20027;-67
2024/01/26 06:28:09;;;;;;;2.75;1.75;;;;;;;;;;4957615;29;20082;-67
2024/01/26 06:30:34;;;;;;;1.60;1.30;;;;;;;;;;4958110;29;20089;-66
2024/01/26 06:33:00;;;;;;;3.45;1.88;;;;;;;;;;4957772;29;20030;-69
2024/01/26 06:35:25;;;;;;;1.98;1.55;;;;;;;;;;4957778;28;20030;-66
2024/01/26 06:37:51;;;;;;;2.95;1.90;;;;;;;;;;4957758;29;20031;-70
2024/01/26 06:40:16;;;;;;;2.50;1.88;;;;;;;;;;4957381;29;20424;-67
2024/01/26 06:42:43;;;;;;;3.15;1.60;;;;;;;;;;4957544;28;20024;-67
2024/01/26 06:45:13;;;;;;;2.35;1.63;;;;;;;;;;4940113;29;20065;-68
2024/01/26 06:47:39;;;;;;;3.03;2.05;;;;;;;;;;4957211;29;20034;-68
2024/01/26 06:50:06;;;;;;;2.28;1.73;;;;;;;;;;4957861;29;20039;-67
2024/01/26 06:52:35;;;;;;;2.53;1.65;;;;;;;;;;4940155;29;20489;-68
2024/01/26 06:55:01;;;;;;;2.93;1.60;;;;;;;;;;4957507;28;20023;-67
2024/01/26 06:57:26;;;;;;;2.85;1.70;;;;;;;;;;4939754;29;20039;-68
2024/01/26 06:59:52;;;;;;;2.88;1.90;;;;;;;;;;4957195;29;20019;-67
2024/01/26 07:02:17;;;;;;;2.13;1.67;;;;;;;;;;4957014;29;20019;-67
2024/01/26 07:04:43;;;;;;;3.65;1.77;;;;;;;;;;4956965;29;20070;-67
2024/01/26 07:07:09;;;;;;;1.70;1.60;;;;;;;;;;4939887;29;20047;-68
2024/01/26 07:09:35;;;;;;;2.25;1.70;;;;;;;;;;4956056;28;20034;-67
2024/01/26 07:12:03;;;;;;;2.38;1.65;;;;;;;;;;4956846;29;20408;-69
2024/01/26 07:14:28;;;;;;;1.95;1.75;;;;;;;;;;4957122;28;20531;-68
2024/01/26 07:16:54;;;;;;;2.80;1.83;;;;;;;;;;4956815;29;20124;-67
2024/01/26 07:19:19;;;;;;;1.77;1.63;;;;;;;;;;4956909;29;20118;-70
2024/01/26 07:21:45;;;;;;;1.92;1.70;;;;;;;;;;4956659;29;20023;-67
2024/01/26 07:24:10;;;;;;;2.22;1.70;;;;;;;;;;4956831;29;20103;-68
2024/01/26 07:26:37;;;;;;;1.63;1.38;;;;;;;;;;4956684;28;20037;-68
2024/01/26 07:29:03;;;;;;;1.92;1.65;;;;;;;;;;4956362;29;20055;-67
2024/01/26 07:31:29;;;;;;;2.30;1.67;;;;;;;;;;4956830;29;20031;-68
2024/01/26 07:33:55;;;;;;;2.33;1.70;;;;;;;;;;4957127;28;20061;-67
2024/01/26 07:36:20;;;;;;;2.30;1.90;;;;;;;;;;4956733;29;20024;-67
2024/01/26 07:38:46;;;;;;;1.92;1.67;;;;;;;;;;4956634;29;20027;-68
2024/01/26 07:41:11;;;;;;;2.58;1.60;;;;;;;;;;4956121;28;20369;-68
2024/01/26 07:43:37;;;;;;;2.85;1.70;;;;;;;;;;4956273;29;20030;-68
2024/01/26 07:46:03;;;;;;;2.40;1.60;;;;;;;;;;4956422;28;20023;-69
2024/01/26 07:48:28;;;;;;;2.22;1.52;;;;;;;;;;4956640;29;20496;-69
2024/01/26 07:50:54;;;;;;;2.17;1.55;;;;;;;;;;4955995;28;20027;-69
2024/01/26 07:53:19;;;;;;;2.33;1.63;;;;;;;;;;4956390;29;20031;-69
2024/01/26 07:55:45;;;;;;;2.00;1.70;;;;;;;;;;4955906;29;20100;-69
2024/01/26 07:58:10;;;;;;;1.88;1.63;;;;;;;;;;4956052;28;20038;-69
2024/01/26 08:00:36;;;;;;;2.50;1.70;;;;;;;;;;4956175;29;20031;-69
2024/01/26 08:03:02;;;;;;;2.40;1.50;;;;;;;;;;4955893;29;20070;-68
2024/01/26 08:05:28;;;;;;;2.30;1.77;;;;;;;;;;4955615;29;20047;-68
2024/01/26 08:07:54;;;;;;;2.25;1.75;;;;;;;;;;4938501;29;20038;-69
2024/01/26 08:10:19;;;;;;;2.05;1.70;;;;;;;;;;4956063;29;20034;-69
2024/01/26 08:12:45;;;;;;;2.75;1.63;;;;;;;;;;4938323;29;20031;-68
2024/01/26 08:15:11;;;;;;;1.85;1.45;;;;;;;;;;4955532;29;20106;-68
2024/01/26 08:17:37;;;;;;;1.85;1.50;;;;;;;;;;4955427;29;20037;-69
2024/01/26 08:20:03;;;;;;;2.38;1.60;;;;;;;;;;4956133;29;20031;-69
2024/01/26 08:22:31;;;;;;;1.88;1.60;;;;;;;;;;4955210;28;20034;-69
2024/01/26 08:25:00;;;;;;;2.35;1.60;;;;;;;;;;4955361;28;20027;-69
2024/01/26 08:27:26;;;;;;;2.10;1.63;;;;;;;;;;4955726;29;20110;-69
2024/01/26 08:29:52;;;;;;;2.10;1.50;;;;;;;;;;4955690;28;20035;-68
2024/01/26 08:32:18;;;;;;;2.13;1.58;;;;;;;;;;4955291;29;20033;-68
2024/01/26 08:34:44;;;;;;;2.55;1.95;;;;;;;;;;4955737;29;20039;-68
2024/01/26 08:37:11;;;;;;;2.25;1.58;;;;;;;;;;4960439;28;20035;-69
2024/01/26 08:39:37;;;;;;;2.25;1.50;;;;;;;;;;4969827;28;20057;-69
2024/01/26 08:42:03;;;;;;;2.15;1.65;;;;;;;;;;4969750;28;20047;-70
2024/01/26 08:44:30;;;;;;;1.50;1.33;;;;;;;;;;4969568;28;20089;-69
2024/01/26 08:46:56;;;;;;;1.50;1.40;;;;;;;;;;4968932;28;20077;-68
2024/01/26 08:49:22;;;;;;;1.65;1.55;;;;;;;;;;4968998;28;20539;-69
2024/01/26 08:51:47;;;;;;;2.92;1.80;;;;;;;;;;4969679;28;20026;-69
2024/01/26 08:54:14;;;;;;;2.05;1.50;;;;;;;;;;4969598;28;20030;-70
2024/01/26 08:56:43;;;;;;;1.88;1.60;;;;;;;;;;4968571;28;20038;-70
2024/01/26 08:59:09;;;;;;;2.13;1.35;;;;;;;;;;4967964;28;20054;-69
2024/01/26 09:01:36;;;;;;;1.85;1.70;;;;;;;;;;4972816;28;20053;-70
2024/01/26 09:04:05;;;;;;;1.98;1.42;;;;;;;;;;4972828;28;20114;-69
2024/01/26 09:06:34;;;;;;;2.47;1.80;;;;;;;;;;4971724;28;20065;-69
2024/01/26 09:08:59;;;;;;;1.92;1.73;;;;;;;;;;4971673;28;20077;-69
2024/01/26 09:11:25;;;;;;;1.98;1.42;;;;;;;;;;4971621;28;20027;-68
2024/01/26 09:13:50;;;;;;;2.60;1.60;;;;;;;;;;4972836;28;20023;-68
2024/01/26 09:16:16;;;;;;;1.70;1.50;;;;;;;;;;4973031;28;20042;-68
2024/01/26 09:18:41;;;;;;;2.03;1.60;;;;;;;;;;4973009;28;20027;-68
2024/01/26 09:21:12;;;;;;;2.55;1.92;;;;;;;;;;4972729;28;20034;-68
2024/01/26 09:23:38;;;;;;;2.00;1.73;;;;;;;;;;4973250;28;20023;-68
2024/01/26 09:26:04;;;;;;;2.00;1.52;;;;;;;;;;4972697;28;20025;-69
2024/01/26 09:28:30;;;;;;;2.92;1.80;;;;;;;;;;4972177;28;20479;-68
2024/01/26 09:30:55;;;;;;;1.58;1.48;;;;;;;;;;4972139;28;20027;-69
2024/01/26 09:33:21;;;;;;;2.17;1.42;;;;;;;;;;4970515;28;20019;-69
2024/01/26 09:35:47;;;;;;;2.20;1.80;;;;;;;;;;4972640;28;20031;-68
2024/01/26 09:38:12;;;;;;;1.75;1.60;;;;;;;;;;4972945;28;20045;-67
2024/01/26 09:40:39;;;;;;;4.95;1.70;;;;;;;;;;4971419;28;20520;-66
2024/01/26 09:43:06;;;;;;;2.42;1.85;;;;;;;;;;4973799;28;20073;-70
2024/01/26 09:45:32;;;;;;;1.90;1.52;;;;;;;;;;4973682;28;20503;-67
2024/01/26 09:47:58;;;;;;;5.43;2.00;;;;;;;;;;4965285;28;20039;-70
2024/01/26 09:50:25;;;;;;;3.40;1.42;;;;;;;;;;4969981;28;20377;-69
2024/01/26 09:52:52;;;;;;;1.50;1.40;;;;;;;;;;4965016;28;20030;-71
2024/01/26 09:55:19;;;;;;;2.35;1.50;;;;;;;;;;4973544;28;20034;-69
2024/01/26 09:57:45;;;;;;;4.25;1.63;;;;;;;;;;4970693;28;20027;-71
2024/01/26 10:00:12;;;;;;;4.10;1.73;;;;;;;;;;4967567;28;20031;-71
2024/01/26 10:02:37;;;;;;;3.10;1.85;;;;;;;;;;4973245;28;20113;-68
2024/01/26 10:05:03;;;;;;;3.38;1.52;;;;;;;;;;4968438;28;20127;-68
2024/01/26 10:07:29;;;;;;;2.03;1.65;;;;;;;;;;4972160;28;20705;-70
2024/01/26 10:09:55;;;;;;;3.13;1.55;;;;;;;;;;4972261;28;20034;-67
2024/01/26 10:12:20;;;;;;;3.20;1.85;;;;;;;;;;4972976;28;20026;-68
2024/01/26 10:14:46;;;;;;;4.00;1.50;;;;;;;;;;4973334;28;20130;-68
2024/01/26 10:17:17;;;;;;;2.85;1.50;;;;;;;;;;4973478;28;20090;-68
2024/01/26 10:19:43;;;;;;;5.60;1.50;;;;;;;;;;4973226;28;20515;-68
2024/01/26 10:22:09;;;;;;;4.05;1.70;;;;;;;;;;4973963;28;20181;-69
2024/01/26 10:24:34;;;;;;;3.95;1.92;;;;;;;;;;4969389;28;20027;-70
2024/01/26 10:27:00;;;;;;;3.45;1.67;;;;;;;;;;4953757;29;20081;-69
2024/01/26 10:29:26;;;;;;;2.10;1.50;;;;;;;;;;4954098;29;20031;-70
2024/01/26 10:31:52;;;;;;;2.28;1.58;;;;;;;;;;4953984;28;20479;-71
2024/01/26 10:34:18;;;;;;;2.45;1.40;;;;;;;;;;4959765;28;20035;-68
2024/01/26 10:36:48;;;;;;;8.77;2.20;;;;;;;;;;4962060;28;20127;-70
2024/01/26 10:39:22;;;;;;;7.00;1.60;;;;;;;;;;4969872;28;20033;-69
2024/01/26 10:41:52;;;;;;;2.55;1.63;;;;;;;;;;4972154;28;20071;-68
2024/01/26 10:44:17;;;;;;;4.05;1.50;;;;;;;;;;4970525;28;20031;-68
2024/01/26 10:46:44;;;;;;;2.58;1.75;;;;;;;;;;4954398;28;20039;-68
2024/01/26 10:49:11;;;;;;;4.00;1.55;;;;;;;;;;4973893;28;20404;-69
2024/01/26 10:51:46;;;;;;;3.92;1.50;;;;;;;;;;4975016;28;20105;-67
2024/01/26 10:54:12;;;;;;;4.65;1.70;;;;;;;;;;4974826;28;20031;-71
2024/01/26 10:56:39;;;;;;;5.00;1.60;;;;;;;;;;4975078;28;20400;-68
2024/01/26 10:59:10;;;;;;;2.78;1.63;;;;;;;;;;4974903;28;20030;-69
2024/01/26 11:01:39;;;;;;;8.48;1.75;;;;;;;;;;4974789;28;20427;-67
2024/01/26 11:04:08;;;;;;;3.58;1.60;;;;;;;;;;4974356;28;20120;-72
2024/01/26 11:06:34;;;;;;;3.10;1.45;;;;;;;;;;4974889;28;20031;-68
2024/01/26 11:09:08;;;;;;;3.40;1.73;;;;;;;;;;4974336;28;20542;-73
2024/01/26 11:11:40;;;;;;;5.50;1.85;;;;;;;;;;4974733;28;20031;-68
2024/01/26 11:14:06;;;;;;;6.25;1.88;;;;;;;;;;4974572;28;20058;-68
2024/01/26 11:16:33;;;;;;;5.22;1.98;;;;;;;;;;4971644;28;20030;-67
2024/01/26 11:18:58;;;;;;;7.85;2.20;;;;;;;;;;4974501;28;20031;-72
2024/01/26 11:21:24;;;;;;;7.85;2.10;;;;;;;;;;4974218;28;20019;-68
2024/01/26 11:23:49;;;;;;;4.20;1.48;;;;;;;;;;4974374;28;20069;-70
2024/01/26 11:26:17;;;;;;;9.30;1.85;;;;;;;;;;4974208;28;20054;-72
2024/01/26 11:28:45;;;;;;;8.77;1.42;;;;;;;;;;4974368;28;20031;-68
2024/01/26 11:31:12;;;;;;;2.28;1.60;;;;;;;;;;4972960;28;20034;-73
2024/01/26 11:33:39;;;;;;;5.85;1.55;;;;;;;;;;4972097;28;20113;-74
2024/01/26 11:36:10;;;;;;;6.20;1.90;;;;;;;;;;4973595;28;20026;-70
2024/01/26 11:38:36;;;;;;;5.38;1.80;;;;;;;;;;4974607;28;20419;-70
2024/01/26 11:41:01;;;;;;;2.75;1.50;;;;;;;;;;4976336;28;20038;-72
2024/01/26 11:43:28;;;;;;;2.10;1.42;;;;;;;;;;4978123;28;20081;-70
2024/01/26 11:45:56;;;;;;;2.50;1.63;;;;;;;;;;4977512;28;20392;-70
2024/01/26 11:48:21;;;;;;;2.70;1.40;;;;;;;;;;4979049;28;20027;-73
2024/01/26 11:50:48;;;;;;;5.88;1.98;;;;;;;;;;4973538;28;20027;-70
2024/01/26 11:53:16;;;;;;;5.85;1.70;;;;;;;;;;4975281;28;20077;-73
2024/01/26 11:55:42;;;;;;;2.67;1.40;;;;;;;;;;4973956;28;20023;-70
2024/01/26 11:58:09;;;;;;;7.75;1.60;;;;;;;;;;4971219;28;20023;-70
2024/01/26 12:00:35;;;;;;;4.65;1.70;;;;;;;;;;4968816;28;20031;-72
2024/01/26 12:03:06;;;;;;;3.80;1.52;;;;;;;;;;4966778;28;20384;-70
2024/01/26 12:05:36;;;;;;;2.60;1.38;;;;;;;;;;4971041;28;20508;-71
2024/01/26 12:08:05;;;;;;;18.45;2.45;;;;;;;;;;4976012;28;20026;-71
2024/01/26 12:10:33;;;;;;;3.88;1.45;;;;;;;;;;4976110;28;20499;-69
2024/01/26 12:12:59;;;;;;;2.30;1.50;;;;;;;;;;4974142;28;20490;-71
2024/01/26 12:15:38;;;;;;;5.07;1.80;;;;;;;;;;4975298;28;20027;-70
2024/01/26 12:18:11;;;;;;;4.50;1.92;;;;;;;;;;4974501;28;20073;-69
2024/01/26 12:20:38;;;;;;;6.28;2.13;;;;;;;;;;4974545;28;20082;-68
2024/01/26 12:23:04;;;;;;;2.83;1.67;;;;;;;;;;4987002;28;20378;-68
2024/01/26 12:25:31;;;;;;;7.93;1.92;;;;;;;;;;4993817;28;20034;-68
2024/01/26 12:28:02;;;;;;;4.38;2.63;;;;;;;;;;4993650;28;20054;-68
2024/01/26 12:30:29;;;;;;;8.18;2.95;;;;;;;;;;4992548;28;20618;-68
2024/01/26 12:33:05;;;;;;;6.03;2.90;;;;;;;;;;4993842;28;20026;-68
2024/01/26 12:35:34;;;;;;;6.45;2.55;;;;;;;;;;4993934;28;20026;-68
2024/01/26 12:38:00;;;;;;;5.88;2.70;;;;;;;;;;4992946;28;20030;-68
2024/01/26 12:40:25;;;;;;;4.68;2.53;;;;;;;;;;4993685;28;20080;-68
2024/01/26 12:42:51;;;;;;;10.60;3.08;;;;;;;;;;4994443;28;20019;-69
2024/01/26 12:45:17;;;;;;;3.55;2.42;;;;;;;;;;4993676;28;20109;-68
2024/01/26 12:47:42;;;;;;;5.60;2.88;;;;;;;;;;4993919;28;20037;-67
2024/01/26 12:50:08;;;;;;;4.30;2.40;;;;;;;;;;4994006;28;20033;-67
2024/01/26 12:52:34;;;;;;;5.35;2.75;;;;;;;;;;4993407;28;20030;-67
2024/01/26 12:54:59;;;;;;;4.07;3.13;;;;;;;;;;4993470;28;20081;-68
2024/01/26 12:57:25;;;;;;;4.25;2.50;;;;;;;;;;4993816;28;20034;-68
2024/01/26 12:59:51;;;;;;;4.45;2.70;;;;;;;;;;4993470;28;20054;-67
2024/01/26 13:02:17;;;;;;;4.50;2.55;;;;;;;;;;4993487;28;20105;-68
2024/01/26 13:04:42;;;;;;;7.50;2.42;;;;;;;;;;4993450;28;20069;-68
2024/01/26 13:07:08;;;;;;;3.97;2.42;;;;;;;;;;4992986;28;20030;-68
2024/01/26 13:09:34;;;;;;;4.07;2.63;;;;;;;;;;4993109;28;20073;-67
2024/01/26 13:12:03;;;;;;;7.95;2.55;;;;;;;;;;4993205;28;20026;-67
2024/01/26 13:14:28;;;;;;;2.63;2.00;;;;;;;;;;4993256;28;20557;-68
2024/01/26 13:16:54;;;;;;;3.83;2.40;;;;;;;;;;4993249;28;20105;-68
2024/01/26 13:19:19;;;;;;;4.40;2.38;;;;;;;;;;4993202;28;20030;-68
2024/01/26 13:21:48;;;;;;;5.60;2.40;;;;;;;;;;4993463;28;20034;-68
2024/01/26 13:24:14;;;;;;;4.00;2.28;;;;;;;;;;4993137;28;20129;-67
2024/01/26 13:26:42;;;;;;;4.55;2.45;;;;;;;;;;4993357;28;20106;-67
2024/01/26 13:29:08;;;;;;;3.78;2.38;;;;;;;;;;4992864;28;20028;-68
2024/01/26 13:31:34;;;;;;;4.15;2.30;;;;;;;;;;4993695;28;20088;-68
2024/01/26 13:34:00;;;;;;;4.82;2.10;;;;;;;;;;4993284;28;20546;-68
2024/01/26 13:36:25;;;;;;;4.88;2.72;;;;;;;;;;4993237;28;20022;-68
2024/01/26 13:38:51;;;;;;;3.08;2.35;;;;;;;;;;4993133;28;20390;-68
2024/01/26 13:41:16;;;;;;;3.72;2.30;;;;;;;;;;4992998;28;20475;-68
2024/01/26 13:43:43;;;;;;;3.88;2.22;;;;;;;;;;4993007;28;20034;-68
2024/01/26 13:46:09;;;;;;;4.63;2.20;;;;;;;;;;4992998;28;20033;-68
2024/01/26 13:48:35;;;;;;;3.50;2.17;;;;;;;;;;4993263;28;20034;-68
2024/01/26 13:51:01;;;;;;;3.05;1.98;;;;;;;;;;4993015;28;20034;-68
2024/01/26 13:53:26;;;;;;;5.13;2.67;;;;;;;;;;4993597;28;20075;-68
2024/01/26 13:55:52;;;;;;;4.60;2.30;;;;;;;;;;4993353;28;20114;-68
2024/01/26 13:58:18;;;;;;;3.17;2.30;;;;;;;;;;4993095;28;20014;-68
2024/01/26 14:00:44;;;;;;;4.03;2.38;;;;;;;;;;4992807;28;20030;-67
2024/01/26 14:03:13;;;;;;;3.72;2.17;;;;;;;;;;4992831;28;20073;-68
2024/01/26 14:05:40;;;;;;;4.72;2.33;;;;;;;;;;4992818;28;20046;-68
2024/01/26 14:08:07;;;;;;;4.22;2.38;;;;;;;;;;4993059;28;20545;-68
2024/01/26 14:10:33;;;;;;;4.07;2.05;;;;;;;;;;4992500;28;20034;-68
2024/01/26 14:12:59;;;;;;;3.90;2.10;;;;;;;;;;4993003;28;20434;-68
2024/01/26 14:15:24;;;;;;;4.68;2.13;;;;;;;;;;4993380;28;20053;-67
2024/01/26 14:17:51;;;;;;;3.92;2.20;;;;;;;;;;4992491;28;20366;-67
2024/01/26 14:20:21;;;;;;;3.08;2.15;;;;;;;;;;4978047;28;20030;-68
2024/01/26 14:22:50;;;;;;;5.07;2.03;;;;;;;;;;4996577;28;20030;-67
2024/01/26 14:25:20;;;;;;;4.40;2.28;;;;;;;;;;4996459;28;20031;-68
2024/01/26 14:27:47;;;;;;;3.85;2.10;;;;;;;;;;4996488;28;20109;-67
2024/01/26 14:30:13;;;;;;;5.22;2.40;;;;;;;;;;4996113;28;20483;-68
2024/01/26 14:32:39;;;;;;;4.00;2.17;;;;;;;;;;4996873;28;20030;-68
2024/01/26 14:35:05;;;;;;;4.60;2.20;;;;;;;;;;4996367;28;20022;-68
2024/01/26 14:37:31;;;;;;;4.80;2.50;;;;;;;;;;4996341;28;20037;-68